createdAt,value
2018-05-04T00:01:26.858Z,76.37
2018-05-04T00:03:54.896Z,76.12
2018-05-04T00:06:23.648Z,76.35
2018-05-04T00:08:51.741Z,72.07
2018-05-04T00:11:19.645Z,75.85
2018-05-04T00:13:47.562Z,74.37
2018-05-04T00:16:15.528Z,76.20
2018-05-04T00:18:43.492Z,75.20
2018-05-04T00:21:11.461Z,75.80
2018-05-04T00:23:39.391Z,76.72
2018-05-04T00:26:07.393Z,75.57
2018-05-04T00:28:35.465Z,77.78
2018-05-04T00:31:03.445Z,74.57
2018-05-04T00:33:31.297Z,77.47
2018-05-04T00:35:59.266Z,75.07
2018-05-04T00:38:27.141Z,79.22
2018-05-04T00:40:55.058Z,74.28
2018-05-04T00:43:23.071Z,77.10
2018-05-04T00:45:50.991Z,74.53
2018-05-04T00:48:18.913Z,74.97
2018-05-04T00:50:46.881Z,75.00
2018-05-04T00:53:14.849Z,73.57
2018-05-04T00:55:42.912Z,73.60
2018-05-04T00:58:10.884Z,72.87
2018-05-04T01:00:38.854Z,73.62
2018-05-04T01:03:06.830Z,72.57
2018-05-04T01:05:34.786Z,74.95
2018-05-04T01:08:02.778Z,74.10
2018-05-04T01:10:30.724Z,74.22
2018-05-04T01:12:58.672Z,72.50
2018-05-04T01:15:26.691Z,74.60
2018-05-04T01:17:55.452Z,74.70
2018-05-04T01:20:23.416Z,73.97
2018-05-04T01:22:51.251Z,74.12
2018-05-04T01:25:19.261Z,72.43
2018-05-04T01:27:47.401Z,73.93
2018-05-04T01:30:15.477Z,73.50
2018-05-04T01:32:43.359Z,73.35
2018-05-04T01:35:11.227Z,73.20
2018-05-04T01:37:39.218Z,73.18
2018-05-04T01:40:07.171Z,73.62
2018-05-04T01:42:34.998Z,74.30
2018-05-04T01:45:02.986Z,74.12
2018-05-04T01:47:30.997Z,75.00
2018-05-04T01:49:59.757Z,74.00
2018-05-04T01:52:27.728Z,75.95
2018-05-04T01:54:55.726Z,73.15
2018-05-04T01:57:24.393Z,74.68
2018-05-04T01:59:52.506Z,72.40
2018-05-04T02:02:20.423Z,74.53
2018-05-04T02:04:48.524Z,73.12
2018-05-04T02:07:17.135Z,73.35
2018-05-04T02:09:45.142Z,73.82
2018-05-04T02:12:13.119Z,73.47
2018-05-04T02:14:41.074Z,75.68
2018-05-04T02:17:09.049Z,74.43
2018-05-04T02:19:36.915Z,75.65
2018-05-04T02:22:04.881Z,72.93
2018-05-04T02:24:32.821Z,77.53
2018-05-04T02:27:00.818Z,71.70
2018-05-04T02:29:28.687Z,75.43
2018-05-04T02:31:56.628Z,71.47
2018-05-04T02:34:24.724Z,73.32
2018-05-04T02:36:52.692Z,72.45
2018-05-04T02:39:20.765Z,74.37
2018-05-04T02:41:48.637Z,73.62
2018-05-04T02:44:16.702Z,72.47
2018-05-04T02:46:44.771Z,73.95
2018-05-04T02:49:12.723Z,71.47
2018-05-04T02:51:40.612Z,72.78
2018-05-04T02:54:08.478Z,73.40
2018-05-04T02:56:36.547Z,74.12
2018-05-04T02:59:04.529Z,73.90
2018-05-04T03:01:32.493Z,74.22
2018-05-04T03:04:00.348Z,73.18
2018-05-04T03:06:28.212Z,76.78
2018-05-04T03:08:56.183Z,73.65
2018-05-04T03:11:24.150Z,74.03
2018-05-04T03:13:52.019Z,74.45
2018-05-04T03:16:19.885Z,75.07
2018-05-04T03:18:47.815Z,73.87
2018-05-04T03:21:15.783Z,76.45
2018-05-04T03:23:43.790Z,75.65
2018-05-04T03:26:11.755Z,76.35
2018-05-04T03:28:39.597Z,75.97
2018-05-04T03:31:07.548Z,75.90
2018-05-04T03:33:36.581Z,77.20
2018-05-04T03:36:04.451Z,75.10
2018-05-04T03:38:32.460Z,75.93
2018-05-04T03:41:01.103Z,74.43
2018-05-04T03:43:29.177Z,78.50
2018-05-04T03:45:57.137Z,76.75
2018-05-04T03:48:25.016Z,77.72
2018-05-04T03:50:52.984Z,76.30
2018-05-04T03:53:20.952Z,76.85
2018-05-04T03:55:48.914Z,77.37
2018-05-04T03:58:28.742Z,75.90
2018-05-04T04:01:08.471Z,76.50
2018-05-04T04:03:48.254Z,76.68
2018-05-04T04:06:16.224Z,76.10
2018-05-04T04:08:44.089Z,77.15
2018-05-04T04:11:12.054Z,76.40
2018-05-04T04:13:40.025Z,76.97
2018-05-04T04:16:08.062Z,75.72
2018-05-04T04:18:36.063Z,76.00
2018-05-04T04:21:05.463Z,74.87
2018-05-04T04:23:33.441Z,76.68
2018-05-04T04:26:01.339Z,76.62
2018-05-04T04:28:29.986Z,77.35
2018-05-04T04:30:58.667Z,77.43
2018-05-04T04:33:26.542Z,78.55
2018-05-04T04:35:56.142Z,73.68
2018-05-04T04:38:24.016Z,78.70
2018-05-04T04:40:52.840Z,87.25
2018-05-04T04:43:20.864Z,77.03
2018-05-04T04:45:48.748Z,79.43
2018-05-04T04:48:16.706Z,78.05
2018-05-04T04:50:46.100Z,77.05
2018-05-04T04:53:13.927Z,75.97
2018-05-04T04:55:41.833Z,74.35
2018-05-04T04:58:09.701Z,75.47
2018-05-04T05:00:37.670Z,83.50
2018-05-04T05:03:05.647Z,76.97
2018-05-04T05:05:33.708Z,78.85
2018-05-04T05:08:01.786Z,77.40
2018-05-04T05:10:29.746Z,77.68
2018-05-04T05:12:57.613Z,75.30
2018-05-04T05:15:25.581Z,77.12
2018-05-04T05:17:53.351Z,75.80
2018-05-04T05:20:21.312Z,76.78
2018-05-04T05:22:49.291Z,76.25
2018-05-04T05:25:17.158Z,85.22
2018-05-04T05:27:45.117Z,77.10
2018-05-04T05:30:12.937Z,86.72
2018-05-04T05:32:40.852Z,78.32
2018-05-04T05:35:08.714Z,75.90
2018-05-04T05:37:36.688Z,79.75
2018-05-04T05:40:04.551Z,76.43
2018-05-04T05:42:32.415Z,78.55
2018-05-04T05:45:00.285Z,77.68
2018-05-04T05:47:28.148Z,81.28
2018-05-04T05:49:56.016Z,75.40
2018-05-04T05:52:23.880Z,78.95
2018-05-04T05:54:51.745Z,77.80
2018-05-04T05:57:19.682Z,77.18
2018-05-04T05:59:47.578Z,77.72
2018-05-04T06:02:15.451Z,79.35
2018-05-04T06:04:43.517Z,78.30
2018-05-04T06:07:11.499Z,78.53
2018-05-04T06:09:39.460Z,77.03
2018-05-04T06:12:07.422Z,74.85
2018-05-04T06:14:35.289Z,78.62
2018-05-04T06:17:03.110Z,88.60
2018-05-04T06:19:31.021Z,81.43
2018-05-04T06:21:58.887Z,74.62
2018-05-04T06:24:26.958Z,76.60
2018-05-04T06:26:55.424Z,74.97
2018-05-04T06:29:23.409Z,76.82
2018-05-04T06:31:51.359Z,75.15
2018-05-04T06:34:19.240Z,76.53
2018-05-04T06:36:47.365Z,72.75
2018-05-04T06:39:15.443Z,75.70
2018-05-04T06:41:43.436Z,79.62
2018-05-04T06:44:11.411Z,74.87
2018-05-04T06:46:39.626Z,78.75
2018-05-04T06:49:08.388Z,78.55
2018-05-04T06:51:36.353Z,77.93
2018-05-04T06:54:04.296Z,75.82
2018-05-04T06:56:32.408Z,80.62
2018-05-04T06:59:00.389Z,77.78
2018-05-04T07:01:29.166Z,78.22
2018-05-04T07:03:57.092Z,78.28
2018-05-04T07:06:25.083Z,78.85
2018-05-04T07:08:53.037Z,76.03
2018-05-04T07:11:21.128Z,76.32
2018-05-04T07:13:49.199Z,75.43
2018-05-04T07:16:17.165Z,75.60
2018-05-04T07:18:45.135Z,75.78
2018-05-04T07:21:13.105Z,78.25
2018-05-04T07:23:41.173Z,74.28
2018-05-04T07:26:09.144Z,74.03
2018-05-04T07:28:37.220Z,81.12
2018-05-04T07:31:05.189Z,76.15
2018-05-04T07:33:33.865Z,77.97
2018-05-04T07:36:01.707Z,75.10
2018-05-04T07:38:29.710Z,77.37
2018-05-04T07:40:57.775Z,76.30
2018-05-04T07:43:25.846Z,76.32
2018-05-04T07:45:53.749Z,76.50
2018-05-04T07:48:22.396Z,76.22
2018-05-04T07:50:50.264Z,75.20
2018-05-04T07:53:18.129Z,74.90
2018-05-04T07:55:46.092Z,75.62
2018-05-04T07:58:14.070Z,71.25
2018-05-04T08:00:41.928Z,75.00
2018-05-04T08:03:09.796Z,75.28
2018-05-04T08:05:37.674Z,76.28
2018-05-04T08:08:05.671Z,74.97
2018-05-04T08:10:34.322Z,77.93
2018-05-04T08:13:02.472Z,73.72
2018-05-04T08:15:30.560Z,78.32
2018-05-04T08:17:58.403Z,75.80
2018-05-04T08:20:26.410Z,76.15
2018-05-04T08:22:54.358Z,73.47
2018-05-04T08:25:22.302Z,78.18
2018-05-04T08:27:50.209Z,75.45
2018-05-04T08:30:18.181Z,73.90
2018-05-04T08:32:47.573Z,72.87
2018-05-04T08:35:15.644Z,75.30
2018-05-04T08:37:43.506Z,76.68
2018-05-04T08:40:11.374Z,73.93
2018-05-04T08:42:39.417Z,74.97
2018-05-04T08:45:07.410Z,73.05
2018-05-04T08:47:35.272Z,79.20
2018-05-04T08:50:03.142Z,75.40
2018-05-04T08:52:31.007Z,79.22
2018-05-04T08:54:58.984Z,75.85
2018-05-04T08:57:27.110Z,79.47
2018-05-04T08:59:55.020Z,77.07
2018-05-04T09:02:23.056Z,76.45
2018-05-04T09:04:51.064Z,75.72
2018-05-04T09:07:19.756Z,76.55
2018-05-04T09:09:47.707Z,74.87
2018-05-04T09:12:15.678Z,75.60
2018-05-04T09:14:43.568Z,75.53
2018-05-04T09:17:12.331Z,75.20
2018-05-04T09:19:40.300Z,75.47
2018-05-04T09:22:08.299Z,76.97
2018-05-04T09:24:37.183Z,75.75
2018-05-04T09:27:06.076Z,76.80
2018-05-04T09:29:34.832Z,77.30
2018-05-04T09:32:02.674Z,74.93
2018-05-04T09:34:30.704Z,76.62
2018-05-04T09:36:59.608Z,73.72
2018-05-04T09:39:27.528Z,74.65
2018-05-04T09:41:55.397Z,74.90
2018-05-04T09:44:23.417Z,75.93
2018-05-04T09:46:51.648Z,75.43
2018-05-04T09:49:19.626Z,77.40
2018-05-04T09:51:47.797Z,74.10
2018-05-04T09:54:15.748Z,73.85
2018-05-04T09:56:43.777Z,75.00
2018-05-04T09:59:11.915Z,77.32
2018-05-04T10:01:40.832Z,75.62
2018-05-04T10:04:09.007Z,74.65
2018-05-04T10:06:36.927Z,76.28
2018-05-04T10:09:04.956Z,76.12
2018-05-04T10:11:33.015Z,75.28
2018-05-04T10:14:01.038Z,76.32
2018-05-04T10:16:29.008Z,74.25
2018-05-04T10:18:57.177Z,76.43
2018-05-04T10:21:25.109Z,79.32
2018-05-04T10:23:53.114Z,74.30
2018-05-04T10:26:21.114Z,75.32
2018-05-04T10:28:49.869Z,74.95
2018-05-04T10:31:17.814Z,76.87
2018-05-04T10:33:45.706Z,74.68
2018-05-04T10:36:13.633Z,75.35
2018-05-04T10:38:41.768Z,76.07
2018-05-04T10:41:09.831Z,74.07
2018-05-04T10:43:38.502Z,76.28
2018-05-04T10:46:06.366Z,73.37
2018-05-04T10:48:34.340Z,75.35
2018-05-04T10:51:02.308Z,72.53
2018-05-04T10:53:30.270Z,78.07
2018-05-04T10:55:58.238Z,72.80
2018-05-04T10:58:26.217Z,74.87
2018-05-04T11:00:54.182Z,74.60
2018-05-04T11:03:22.050Z,78.62
2018-05-04T11:05:51.176Z,73.43
2018-05-04T11:08:19.821Z,74.40
2018-05-04T11:10:47.688Z,73.47
2018-05-04T11:13:15.555Z,74.43
2018-05-04T11:15:43.695Z,76.12
2018-05-04T11:18:11.591Z,74.80
2018-05-04T11:20:39.455Z,72.30
2018-05-04T11:23:07.288Z,76.25
2018-05-04T11:25:35.293Z,75.05
2018-05-04T11:28:03.268Z,77.35
2018-05-04T11:30:31.127Z,78.62
2018-05-04T11:32:58.992Z,75.35
2018-05-04T11:35:26.856Z,74.03
2018-05-04T11:37:54.724Z,77.70
2018-05-04T11:40:22.693Z,77.97
2018-05-04T11:42:50.559Z,76.60
2018-05-04T11:45:19.962Z,77.97
2018-05-04T11:47:47.906Z,77.18
2018-05-04T11:50:16.473Z,77.40
2018-05-04T11:52:44.383Z,72.62
2018-05-04T11:55:12.318Z,77.60
2018-05-04T11:57:40.228Z,75.15
2018-05-04T12:00:08.078Z,74.30
2018-05-04T12:02:36.055Z,75.95
2018-05-04T12:05:03.912Z,75.62
2018-05-04T12:07:31.890Z,75.57
2018-05-04T12:10:00.567Z,75.68
2018-05-04T12:12:28.643Z,76.78
2018-05-04T12:14:56.508Z,76.30
2018-05-04T12:17:24.372Z,76.07
2018-05-04T12:19:52.238Z,76.68
2018-05-04T12:22:20.204Z,73.93
2018-05-04T12:24:48.078Z,77.70
2018-05-04T12:27:15.940Z,75.60
2018-05-04T12:29:43.806Z,78.30
2018-05-04T12:32:11.669Z,74.00
2018-05-04T12:34:40.356Z,77.62
2018-05-04T12:37:08.286Z,73.18
2018-05-04T12:39:36.195Z,76.32
2018-05-04T12:42:05.590Z,74.72
2018-05-04T12:44:33.456Z,76.10
2018-05-04T12:47:01.419Z,73.90
2018-05-04T12:49:29.290Z,76.62
2018-05-04T12:51:57.160Z,73.85
2018-05-04T12:54:25.024Z,75.10
2018-05-04T12:56:52.891Z,76.05
2018-05-04T12:59:20.755Z,75.22
2018-05-04T13:01:48.620Z,74.97
2018-05-04T13:04:16.593Z,75.32
2018-05-04T13:06:44.459Z,73.32
2018-05-04T13:09:12.273Z,73.50
2018-05-04T13:11:40.393Z,75.25
2018-05-04T13:14:08.260Z,74.60
2018-05-04T13:16:36.127Z,78.80
2018-05-04T13:19:03.961Z,76.53
2018-05-04T13:21:31.857Z,78.07
2018-05-04T13:23:59.723Z,77.82
2018-05-04T13:26:27.594Z,75.68
2018-05-04T13:28:55.557Z,75.68
2018-05-04T13:31:23.424Z,78.82
2018-05-04T13:33:51.290Z,73.30
2018-05-04T13:36:19.258Z,75.30
2018-05-04T13:38:47.236Z,73.90
2018-05-04T13:41:15.261Z,75.72
2018-05-04T13:43:43.131Z,74.53
2018-05-04T13:46:11.030Z,74.78
2018-05-04T13:48:38.898Z,75.90
2018-05-04T13:51:06.771Z,73.72
2018-05-04T13:53:34.631Z,75.12
2018-05-04T13:56:02.499Z,73.70
2018-05-04T13:58:30.360Z,77.72
2018-05-04T14:00:58.229Z,75.15
2018-05-04T14:03:26.091Z,76.05
2018-05-04T14:05:54.023Z,73.45
2018-05-04T14:08:22.703Z,75.53
2018-05-04T14:10:50.613Z,73.80
2018-05-04T14:13:18.581Z,74.93
2018-05-04T14:15:46.446Z,75.53
2018-05-04T14:18:14.419Z,73.80
2018-05-04T14:20:42.282Z,72.57
2018-05-04T14:23:10.151Z,77.75
2018-05-04T14:25:38.013Z,77.97
2018-05-04T14:28:06.084Z,76.47
2018-05-04T14:30:34.162Z,77.68
2018-05-04T14:33:02.231Z,75.53
2018-05-04T14:35:30.096Z,78.65
2018-05-04T14:37:57.961Z,76.55
2018-05-04T14:40:25.928Z,75.20
2018-05-04T14:42:53.942Z,78.05
2018-05-04T14:45:21.729Z,75.97
2018-05-04T14:47:49.635Z,76.32
2018-05-04T14:50:17.583Z,77.70
2018-05-04T14:52:45.565Z,74.95
2018-05-04T14:55:13.433Z,76.82
2018-05-04T14:57:41.294Z,75.10
2018-05-04T15:00:09.162Z,75.18
2018-05-04T15:02:37.028Z,76.43
2018-05-04T15:05:05.000Z,76.62
2018-05-04T15:07:32.863Z,78.15
2018-05-04T15:10:00.707Z,76.50
2018-05-04T15:12:28.595Z,76.50
2018-05-04T15:14:56.569Z,74.28
2018-05-04T15:17:24.429Z,76.35
2018-05-04T15:19:52.272Z,74.43
2018-05-04T15:22:20.161Z,76.70
2018-05-04T15:24:48.334Z,82.47
2018-05-04T15:27:16.202Z,81.50
2018-05-04T15:29:44.067Z,77.65
2018-05-04T15:32:11.934Z,76.37
2018-05-04T15:34:39.902Z,74.70
2018-05-04T15:37:07.720Z,74.70
2018-05-04T15:39:35.533Z,75.32
2018-05-04T15:42:03.499Z,76.43
2018-05-04T15:44:32.199Z,79.40
2018-05-04T15:47:00.874Z,76.07
2018-05-04T15:49:28.841Z,77.78
2018-05-04T15:52:02.442Z,75.93
2018-05-04T15:54:30.308Z,76.72
2018-05-04T15:56:58.175Z,75.75
2018-05-04T15:59:26.038Z,75.30
2018-05-04T16:01:53.911Z,77.90
2018-05-04T16:04:21.737Z,74.40
2018-05-04T16:06:49.637Z,75.85
2018-05-04T16:09:17.463Z,79.05
2018-05-04T16:11:45.369Z,76.37
2018-05-04T16:14:13.236Z,75.18
2018-05-04T16:16:41.106Z,77.40
2018-05-04T16:19:08.972Z,79.37
2018-05-04T16:21:36.832Z,79.65
2018-05-04T16:24:04.800Z,78.12
2018-05-04T16:26:32.670Z,80.95
2018-05-04T16:29:00.648Z,77.32
2018-05-04T16:31:28.518Z,77.72
2018-05-04T16:33:56.370Z,77.18
2018-05-04T16:36:24.247Z,74.55
2018-05-04T16:38:52.201Z,75.35
2018-05-04T16:41:20.170Z,77.53
2018-05-04T16:43:48.005Z,73.70
2018-05-04T16:46:21.500Z,75.53
2018-05-04T16:48:54.896Z,76.65
2018-05-04T16:51:22.794Z,76.97
2018-05-04T16:53:50.766Z,74.57
2018-05-04T16:56:18.733Z,77.18
2018-05-04T16:58:46.599Z,77.50
2018-05-04T17:01:14.465Z,77.87
2018-05-04T17:03:42.445Z,75.82
2018-05-04T17:06:10.410Z,78.40
2018-05-04T17:08:38.377Z,79.82
2018-05-04T17:11:06.242Z,74.15
2018-05-04T17:13:34.211Z,80.78
2018-05-04T17:16:02.178Z,75.75
2018-05-04T17:18:30.142Z,78.43
2018-05-04T17:20:58.332Z,75.47
2018-05-04T17:23:26.252Z,75.40
2018-05-04T17:25:54.254Z,72.95
2018-05-04T17:28:22.189Z,74.62
2018-05-04T17:30:50.190Z,74.22
2018-05-04T17:33:18.160Z,75.40
2018-05-04T17:35:46.086Z,75.28
2018-05-04T17:38:14.095Z,72.72
2018-05-04T17:40:41.893Z,82.68
2018-05-04T17:43:10.450Z,78.40
2018-05-04T17:45:38.309Z,76.80
2018-05-04T17:48:06.276Z,74.12
2018-05-04T17:50:34.142Z,79.00
2018-05-04T17:53:02.113Z,76.95
2018-05-04T17:55:29.979Z,81.25
2018-05-04T17:57:57.853Z,76.97
2018-05-04T18:00:25.772Z,75.18
2018-05-04T18:02:53.637Z,72.25
2018-05-04T18:05:21.546Z,73.85
2018-05-04T18:07:49.408Z,75.80
2018-05-04T18:10:17.427Z,74.75
2018-05-04T18:12:45.334Z,77.47
2018-05-04T18:15:13.309Z,77.72
2018-05-04T18:17:41.189Z,78.50
2018-05-04T18:20:09.981Z,77.65
2018-05-04T18:22:37.911Z,79.80
2018-05-04T18:25:05.804Z,77.53
2018-05-04T18:27:33.672Z,85.47
2018-05-04T18:30:01.494Z,87.07
2018-05-04T18:32:29.402Z,89.45
2018-05-04T18:34:57.268Z,94.93
2018-05-04T18:37:25.134Z,88.20
2018-05-04T18:39:53.003Z,93.37
2018-05-04T18:42:20.878Z,97.73
2018-05-04T18:44:48.735Z,94.62
2018-05-04T18:47:16.702Z,91.37
2018-05-04T18:49:44.567Z,93.32
2018-05-04T18:52:12.438Z,104.90
2018-05-04T18:54:40.407Z,100.65
2018-05-04T18:57:08.272Z,92.88
2018-05-04T18:59:36.952Z,100.37
2018-05-04T19:02:04.922Z,93.37
2018-05-04T19:04:32.878Z,90.90
2018-05-04T19:07:00.861Z,87.32
2018-05-04T19:09:28.831Z,85.80
2018-05-04T19:11:56.661Z,84.85
2018-05-04T19:14:24.561Z,88.97
2018-05-04T19:16:52.428Z,91.10
2018-05-04T19:19:20.394Z,84.95
2018-05-04T19:21:48.262Z,83.50
2018-05-04T19:24:16.127Z,96.90
2018-05-04T19:26:43.992Z,83.47
2018-05-04T19:29:13.240Z,85.95
2018-05-04T19:31:41.263Z,85.30
2018-05-04T19:34:09.722Z,85.28
2018-05-04T19:36:37.577Z,89.20
2018-05-04T19:39:05.677Z,84.70
2018-05-04T19:41:33.645Z,87.57
2018-05-04T19:44:01.513Z,85.65
2018-05-04T19:46:29.588Z,82.88
2018-05-04T19:48:57.420Z,80.32
2018-05-04T19:51:25.419Z,83.62
2018-05-04T19:53:53.387Z,82.78
2018-05-04T19:56:21.252Z,88.37
2018-05-04T19:58:49.123Z,87.82
2018-05-04T20:01:16.987Z,90.82
2018-05-04T20:03:44.951Z,80.97
2018-05-04T20:06:12.820Z,89.13
2018-05-04T20:08:40.891Z,91.25
2018-05-04T20:11:08.755Z,88.62
2018-05-04T20:13:36.728Z,89.57
2018-05-04T20:16:05.920Z,90.97
2018-05-04T20:18:35.119Z,91.85
2018-05-04T20:21:04.316Z,89.68
2018-05-04T20:23:33.481Z,91.20
2018-05-04T20:26:02.710Z,87.30
2018-05-04T20:28:31.910Z,93.30
2018-05-04T20:31:01.084Z,91.35
2018-05-04T20:33:30.302Z,92.22
2018-05-04T20:35:59.501Z,93.30
2018-05-04T20:38:28.701Z,93.55
2018-05-04T20:40:57.863Z,91.67
2018-05-04T20:43:26.992Z,89.10
2018-05-04T20:45:56.185Z,89.53
2018-05-04T20:48:25.387Z,92.75
2018-05-04T20:50:54.580Z,89.93
2018-05-04T20:55:59.119Z,89.68
2018-05-04T20:58:28.284Z,88.82
2018-05-04T21:00:57.514Z,86.23
2018-05-04T21:03:26.713Z,89.65
2018-05-04T21:05:56.007Z,87.85
2018-05-04T21:08:25.189Z,84.62
2018-05-04T21:10:54.407Z,85.95
2018-05-04T21:13:23.913Z,81.20
2018-05-04T21:15:53.109Z,76.95
2018-05-04T21:18:22.308Z,78.68
2018-05-04T21:20:51.507Z,85.70
2018-05-04T21:23:20.712Z,78.97
2018-05-04T21:25:49.974Z,79.65
2018-05-04T21:28:19.201Z,77.40
2018-05-04T21:30:48.394Z,77.50
2018-05-04T21:33:17.697Z,85.38
2018-05-04T21:35:46.993Z,91.70
2018-05-04T21:38:16.191Z,82.18
2018-05-04T21:59:18.643Z,72.57
2018-05-04T22:01:46.863Z,73.50
2018-05-04T22:04:14.833Z,73.40
2018-05-04T22:06:42.799Z,86.10
2018-05-04T22:09:10.667Z,75.32
2018-05-04T22:11:38.634Z,77.25
2018-05-04T22:14:06.501Z,76.20
2018-05-04T22:16:34.568Z,76.65
2018-05-04T22:19:02.541Z,75.18
2018-05-04T22:21:30.512Z,74.78
2018-05-04T22:23:58.481Z,74.00
2018-05-04T22:26:26.399Z,75.95
2018-05-04T22:28:54.580Z,74.93
2018-05-04T22:31:22.479Z,74.30
2018-05-04T22:33:50.358Z,76.32
2018-05-04T22:36:18.422Z,72.80
2018-05-04T22:38:46.387Z,82.47
2018-05-04T22:41:14.256Z,79.75
2018-05-04T22:43:42.224Z,77.25
2018-05-04T22:46:10.200Z,74.90
2018-05-04T22:48:38.157Z,77.68
2018-05-04T22:51:06.125Z,76.62
2018-05-04T22:53:34.104Z,75.15
2018-05-04T22:56:02.076Z,75.18
2018-05-04T22:58:29.931Z,74.55
2018-05-04T23:00:57.901Z,74.97
2018-05-04T23:03:25.972Z,76.85
2018-05-04T23:05:53.806Z,72.45
2018-05-04T23:08:21.909Z,73.57
2018-05-04T23:10:49.873Z,74.07
2018-05-04T23:13:17.757Z,77.95
2018-05-04T23:15:45.573Z,76.37
2018-05-04T23:18:14.293Z,74.05
2018-05-04T23:20:42.159Z,75.75
2018-05-04T23:23:10.126Z,74.62
2018-05-04T23:25:37.987Z,78.03
2018-05-04T23:28:05.956Z,73.90
2018-05-04T23:30:33.912Z,75.68
2018-05-04T23:33:01.862Z,74.65
2018-05-04T23:35:29.766Z,74.45
2018-05-04T23:37:57.636Z,73.25
2018-05-04T23:40:25.617Z,72.62
2018-05-04T23:42:53.471Z,73.65
2018-05-04T23:45:21.330Z,73.78
2018-05-04T23:47:49.207Z,85.18
2018-05-04T23:50:18.706Z,77.22
2018-05-04T23:52:46.571Z,74.82
2018-05-04T23:55:14.435Z,76.47
2018-05-04T23:57:42.512Z,74.62
